sensor_id;sensor_type;location;lat;lon;timestamp;temperature;humidity
40696;DHT22;40425;51.102;17.208;2023-04-01T00:03:24;9.30;99.90
40696;DHT22;40425;51.102;17.208;2023-04-01T00:08:29;9.30;99.90
40696;DHT22;40425;51.102;17.208;2023-04-01T00:13:31;9.30;99.90
40696;DHT22;40425;51.102;17.208;2023-04-01T00:18:32;9.30;99.90
40696;DHT22;40425;51.102;17.208;2023-04-01T00:23:34;9.40;99.90
40696;DHT22;40425;51.102;17.208;2023-04-01T00:28:35;9.50;99.90
40696;DHT22;40425;51.102;17.208;2023-04-01T00:33:37;9.40;99.90
40696;DHT22;40425;51.102;17.208;2023-04-01T00:38:39;9.50;99.90
40696;DHT22;40425;51.102;17.208;2023-04-01T00:43:42;9.60;99.90
40696;DHT22;40425;51.102;17.208;2023-04-01T00:48:47;9.60;99.90
40696;DHT22;40425;51.102;17.208;2023-04-01T00:53:52;9.40;99.90
40696;DHT22;40425;51.102;17.208;2023-04-01T00:59:14;9.60;99.90
40696;DHT22;40425;51.102;17.208;2023-04-01T01:04:29;9.60;99.90
40696;DHT22;40425;51.102;17.208;2023-04-01T01:09:47;9.60;99.90
40696;DHT22;40425;51.102;17.208;2023-04-01T01:31:20;9.70;99.90
40696;DHT22;40425;51.102;17.208;2023-04-01T01:36:26;9.70;99.90
40696;DHT22;40425;51.102;17.208;2023-04-01T01:41:29;9.70;99.90
40696;DHT22;40425;51.102;17.208;2023-04-01T01:46:31;9.70;99.90
40696;DHT22;40425;51.102;17.208;2023-04-01T01:51:32;9.70;99.90
40696;DHT22;40425;51.102;17.208;2023-04-01T01:56:34;9.60;99.90
40696;DHT22;40425;51.102;17.208;2023-04-01T02:01:39;9.60;99.90
40696;DHT22;40425;51.102;17.208;2023-04-01T02:06:50;9.60;99.90
40696;DHT22;40425;51.102;17.208;2023-04-01T02:11:59;9.70;99.90
40696;DHT22;40425;51.102;17.208;2023-04-01T02:17:06;9.70;99.90
40696;DHT22;40425;51.102;17.208;2023-04-01T02:22:11;9.70;99.90
40696;DHT22;40425;51.102;17.208;2023-04-01T02:27:14;9.70;99.90
40696;DHT22;40425;51.102;17.208;2023-04-01T02:32:16;9.70;99.90
40696;DHT22;40425;51.102;17.208;2023-04-01T02:37:18;9.70;99.90
40696;DHT22;40425;51.102;17.208;2023-04-01T02:42:20;9.80;99.90
40696;DHT22;40425;51.102;17.208;2023-04-01T02:47:20;9.80;99.90
40696;DHT22;40425;51.102;17.208;2023-04-01T02:52:21;9.80;99.90
40696;DHT22;40425;51.102;17.208;2023-04-01T02:57:23;9.90;99.90
40696;DHT22;40425;51.102;17.208;2023-04-01T03:02:24;10.00;99.90
40696;DHT22;40425;51.102;17.208;2023-04-01T03:07:25;10.00;99.90
40696;DHT22;40425;51.102;17.208;2023-04-01T03:12:26;10.00;99.90
40696;DHT22;40425;51.102;17.208;2023-04-01T03:17:27;10.00;99.90
40696;DHT22;40425;51.102;17.208;2023-04-01T03:22:28;9.90;99.90
40696;DHT22;40425;51.102;17.208;2023-04-01T03:27:29;9.90;99.90
40696;DHT22;40425;51.102;17.208;2023-04-01T03:32:30;9.80;99.90
40696;DHT22;40425;51.102;17.208;2023-04-01T03:37:31;9.80;99.90
40696;DHT22;40425;51.102;17.208;2023-04-01T03:42:32;9.80;99.90
40696;DHT22;40425;51.102;17.208;2023-04-01T03:47:33;9.80;99.90
40696;DHT22;40425;51.102;17.208;2023-04-01T03:52:35;9.90;99.90
40696;DHT22;40425;51.102;17.208;2023-04-01T03:57:38;9.80;99.90
40696;DHT22;40425;51.102;17.208;2023-04-01T04:02:39;9.90;99.90
40696;DHT22;40425;51.102;17.208;2023-04-01T04:07:40;9.80;99.90
40696;DHT22;40425;51.102;17.208;2023-04-01T04:12:41;9.80;99.90
40696;DHT22;40425;51.102;17.208;2023-04-01T04:17:43;9.80;99.90
40696;DHT22;40425;51.102;17.208;2023-04-01T04:22:44;9.80;99.90
40696;DHT22;40425;51.102;17.208;2023-04-01T04:27:46;9.80;99.90
40696;DHT22;40425;51.102;17.208;2023-04-01T04:32:47;9.80;99.90
40696;DHT22;40425;51.102;17.208;2023-04-01T04:37:48;9.80;99.90
40696;DHT22;40425;51.102;17.208;2023-04-01T04:42:49;9.80;99.90
40696;DHT22;40425;51.102;17.208;2023-04-01T04:47:50;9.70;99.90
40696;DHT22;40425;51.102;17.208;2023-04-01T04:52:51;9.60;99.90
40696;DHT22;40425;51.102;17.208;2023-04-01T04:57:53;9.60;99.90
40696;DHT22;40425;51.102;17.208;2023-04-01T05:02:53;9.60;99.90
40696;DHT22;40425;51.102;17.208;2023-04-01T05:07:54;9.60;99.90
40696;DHT22;40425;51.102;17.208;2023-04-01T05:12:55;9.60;99.90
40696;DHT22;40425;51.102;17.208;2023-04-01T05:17:56;9.70;99.90
40696;DHT22;40425;51.102;17.208;2023-04-01T05:22:58;9.80;99.90
40696;DHT22;40425;51.102;17.208;2023-04-01T05:28:00;9.80;99.90
40696;DHT22;40425;51.102;17.208;2023-04-01T05:33:01;9.80;99.90
40696;DHT22;40425;51.102;17.208;2023-04-01T05:38:02;9.90;99.90
40696;DHT22;40425;51.102;17.208;2023-04-01T05:43:03;9.80;99.90
40696;DHT22;40425;51.102;17.208;2023-04-01T05:48:04;9.80;99.90
40696;DHT22;40425;51.102;17.208;2023-04-01T05:53:05;9.80;99.90
40696;DHT22;40425;51.102;17.208;2023-04-01T05:58:06;9.80;99.90
40696;DHT22;40425;51.102;17.208;2023-04-01T06:03:07;9.90;99.90
40696;DHT22;40425;51.102;17.208;2023-04-01T06:08:14;10.00;99.90
40696;DHT22;40425;51.102;17.208;2023-04-01T06:13:35;10.00;99.90
40696;DHT22;40425;51.102;17.208;2023-04-01T06:39:52;10.20;99.90
40696;DHT22;40425;51.102;17.208;2023-04-01T06:45:20;10.20;99.90
40696;DHT22;40425;51.102;17.208;2023-04-01T06:50:29;10.20;99.90
40696;DHT22;40425;51.102;17.208;2023-04-01T07:00:43;10.40;99.90
40696;DHT22;40425;51.102;17.208;2023-04-01T07:05:45;10.40;99.90
40696;DHT22;40425;51.102;17.208;2023-04-01T07:10:54;10.40;99.90
40696;DHT22;40425;51.102;17.208;2023-04-01T07:16:11;10.40;99.90
40696;DHT22;40425;51.102;17.208;2023-04-01T07:21:37;10.50;99.90
40696;DHT22;40425;51.102;17.208;2023-04-01T07:26:40;10.60;99.90
40696;DHT22;40425;51.102;17.208;2023-04-01T07:37:30;10.90;99.90
40696;DHT22;40425;51.102;17.208;2023-04-01T07:42:55;10.90;99.90
40696;DHT22;40425;51.102;17.208;2023-04-01T07:48:28;10.80;99.90
40696;DHT22;40425;51.102;17.208;2023-04-01T07:53:49;10.80;99.90
40696;DHT22;40425;51.102;17.208;2023-04-01T07:59:17;10.90;99.90
40696;DHT22;40425;51.102;17.208;2023-04-01T08:10:11;10.90;99.90
40696;DHT22;40425;51.102;17.208;2023-04-01T08:15:28;11.10;99.90
40696;DHT22;40425;51.102;17.208;2023-04-01T08:20:47;11.20;99.90
40696;DHT22;40425;51.102;17.208;2023-04-01T08:26:20;11.60;99.90
40696;DHT22;40425;51.102;17.208;2023-04-01T08:36:36;11.80;99.90
40696;DHT22;40425;51.102;17.208;2023-04-01T08:41:55;11.80;99.90
40696;DHT22;40425;51.102;17.208;2023-04-01T08:47:20;11.80;99.90
40696;DHT22;40425;51.102;17.208;2023-04-01T09:25:01;12.50;99.90
40696;DHT22;40425;51.102;17.208;2023-04-01T09:30:37;12.50;99.90
40696;DHT22;40425;51.102;17.208;2023-04-01T09:46:09;13.60;99.90
40696;DHT22;40425;51.102;17.208;2023-04-01T10:18:41;11.70;99.90
40696;DHT22;40425;51.102;17.208;2023-04-01T10:30:17;11.50;99.90
40696;DHT22;40425;51.102;17.208;2023-04-01T10:41:28;11.10;99.90
40696;DHT22;40425;51.102;17.208;2023-04-01T10:52:10;10.60;99.90
40696;DHT22;40425;51.102;17.208;2023-04-01T11:09:02;10.30;99.90
40696;DHT22;40425;51.102;17.208;2023-04-01T11:14:35;10.20;99.90
40696;DHT22;40425;51.102;17.208;2023-04-01T11:20:06;10.40;99.90
40696;DHT22;40425;51.102;17.208;2023-04-01T11:36:42;11.10;99.90
40696;DHT22;40425;51.102;17.208;2023-04-01T11:41:54;11.20;99.90
40696;DHT22;40425;51.102;17.208;2023-04-01T11:47:20;11.60;99.90
40696;DHT22;40425;51.102;17.208;2023-04-01T12:46:17;12.60;99.90
40696;DHT22;40425;51.102;17.208;2023-04-01T13:28:29;13.70;99.90
40696;DHT22;40425;51.102;17.208;2023-04-01T13:39:22;13.60;99.90
40696;DHT22;40425;51.102;17.208;2023-04-01T13:44:44;13.70;99.90
40696;DHT22;40425;51.102;17.208;2023-04-01T13:50:22;13.70;99.90
40696;DHT22;40425;51.102;17.208;2023-04-01T14:01:12;13.20;99.90
40696;DHT22;40425;51.102;17.208;2023-04-01T14:06:27;12.90;99.90
40696;DHT22;40425;51.102;17.208;2023-04-01T14:17:10;13.40;99.90
40696;DHT22;40425;51.102;17.208;2023-04-01T14:28:18;13.00;99.90
40696;DHT22;40425;51.102;17.208;2023-04-01T14:54:37;12.70;99.90
40696;DHT22;40425;51.102;17.208;2023-04-01T18:50:02;9.60;99.90
40696;DHT22;40425;51.102;17.208;2023-04-01T18:55:36;9.60;99.90
40696;DHT22;40425;51.102;17.208;2023-04-01T19:00:42;9.60;99.90
40696;DHT22;40425;51.102;17.208;2023-04-01T19:05:48;9.50;99.90
40696;DHT22;40425;51.102;17.208;2023-04-01T19:16:37;9.30;99.90
40696;DHT22;40425;51.102;17.208;2023-04-01T19:21:53;9.30;99.90
40696;DHT22;40425;51.102;17.208;2023-04-01T19:32:30;9.20;99.90
40696;DHT22;40425;51.102;17.208;2023-04-01T19:37:50;9.20;99.90
40696;DHT22;40425;51.102;17.208;2023-04-01T19:48:26;9.20;99.90
40696;DHT22;40425;51.102;17.208;2023-04-01T19:53:50;9.10;99.90
40696;DHT22;40425;51.102;17.208;2023-04-01T20:04:55;9.10;99.90
40696;DHT22;40425;51.102;17.208;2023-04-01T20:10:13;9.10;99.90
40696;DHT22;40425;51.102;17.208;2023-04-01T20:15:32;9.10;99.90
40696;DHT22;40425;51.102;17.208;2023-04-01T20:20:35;9.10;99.90
40696;DHT22;40425;51.102;17.208;2023-04-01T20:26:12;9.10;99.90
40696;DHT22;40425;51.102;17.208;2023-04-01T20:51:43;9.00;99.90
40696;DHT22;40425;51.102;17.208;2023-04-01T21:24:02;8.80;99.90
40696;DHT22;40425;51.102;17.208;2023-04-01T21:34:48;8.60;99.90
40696;DHT22;40425;51.102;17.208;2023-04-01T21:40:41;8.40;99.90
40696;DHT22;40425;51.102;17.208;2023-04-01T21:57:11;8.40;99.90
40696;DHT22;40425;51.102;17.208;2023-04-01T22:07:25;8.20;99.90
40696;DHT22;40425;51.102;17.208;2023-04-01T22:49:32;7.90;99.90
40696;DHT22;40425;51.102;17.208;2023-04-01T22:54:52;7.70;99.90
40696;DHT22;40425;51.102;17.208;2023-04-01T23:00:04;7.60;99.90
40696;DHT22;40425;51.102;17.208;2023-04-01T23:05:13;7.50;99.90
40696;DHT22;40425;51.102;17.208;2023-04-01T23:10:26;7.30;99.90
40696;DHT22;40425;51.102;17.208;2023-04-01T23:15:29;7.30;99.90
40696;DHT22;40425;51.102;17.208;2023-04-01T23:35:51;7.00;99.90
40696;DHT22;40425;51.102;17.208;2023-04-01T23:40:54;6.80;99.90
40696;DHT22;40425;51.102;17.208;2023-04-01T23:45:56;6.70;99.90
40696;DHT22;40425;51.102;17.208;2023-04-01T23:50:58;6.50;99.90
40696;DHT22;40425;51.102;17.208;2023-04-01T23:56:00;6.50;99.90
